createdAt,value
2023-04-25T17:34:53.916Z,11.73
2023-04-25T17:39:58.049Z,12.28
2023-04-25T17:45:02.131Z,12.50
2023-04-25T17:50:10.185Z,12.54
2023-04-25T17:55:14.582Z,12.47
2023-04-25T18:00:21.173Z,12.37
2023-04-25T18:05:27.860Z,12.26
2023-04-25T18:10:34.374Z,12.12
2023-04-25T18:15:39.118Z,11.98
2023-04-25T18:20:46.969Z,11.87
2023-04-25T18:25:51.552Z,11.81
2023-04-25T18:30:56.176Z,11.74
2023-04-25T18:36:03.760Z,11.65
2023-04-25T18:41:42.156Z,11.58
2023-04-25T18:46:46.622Z,11.41
2023-04-25T18:51:55.621Z,11.28
2023-04-25T18:57:00.704Z,11.13
2023-04-25T19:02:06.555Z,10.98
2023-04-25T19:07:14.234Z,10.86
2023-04-25T19:12:18.237Z,10.69
2023-04-25T19:17:22.172Z,10.55
2023-04-25T19:22:28.338Z,10.45
2023-04-25T19:27:33.192Z,10.34
2023-04-25T19:32:37.491Z,10.22
2023-04-25T19:37:45.851Z,10.14
2023-04-25T19:42:50.349Z,10.04
2023-04-25T19:47:55.457Z,9.95
2023-04-25T19:53:01.683Z,9.87
2023-04-25T19:58:06.513Z,9.79
2023-04-25T20:03:11.874Z,9.70
2023-04-25T20:08:18.426Z,9.65
2023-04-25T20:13:22.708Z,9.55
2023-04-25T20:18:26.917Z,9.48
2023-04-25T20:23:33.375Z,9.41
2023-04-25T20:28:37.525Z,9.32
2023-04-25T20:33:43.131Z,9.24
2023-04-25T20:38:49.073Z,9.13
2023-04-25T20:43:53.812Z,9.10
2023-04-25T20:49:02.445Z,9.01
2023-04-25T20:54:08.991Z,8.93
2023-04-25T20:59:14.895Z,8.83
2023-04-25T21:04:19.069Z,8.77
2023-04-25T21:09:25.201Z,8.69
2023-04-25T21:14:29.384Z,8.64
2023-04-25T21:19:33.674Z,8.58
2023-04-25T21:24:39.717Z,8.56
2023-04-25T21:29:43.764Z,8.49
2023-04-25T21:34:47.820Z,8.49
2023-04-25T21:39:54.221Z,8.54
2023-04-25T21:44:58.301Z,8.67
2023-04-25T21:50:03.333Z,8.82
2023-04-25T21:55:12.212Z,8.98
